General Aviation Weather

Text Reports

Enter one or more of the following location identifiers separated by a space:

Zip Code, Four-Character ICAO or Three-Character IATA airport codes.

METAR - Aviation Routine Weather Report
KPRG - Paris, Illinois
Updated at 1:15 AM GMT on September 03, 2015 (8:15 PM CDT):
METAR KPRG 030115Z AUTO 00000KT 10SM CLR 23/22 A3002 RMK AO2 T02330215
TAF - Terminal Area Forecast
KPRG - Paris, Illinois
Updated at 1:15 AM GMT on September 03, 2015 (8:15 PM CDT):
No TAF is currently available for this location.
Decoded:
No decoded TAF is available.
PIREP - Pilot Weather Report
KPRG - Paris, Illinois
Updated at 1:15 AM GMT on September 03, 2015 (8:15 PM CDT):
No PIREP is currently available for this location.
AIRMET - Airmens Meteorological Information
KPRG - Paris, Illinois
Updated at 1:15 AM GMT on September 03, 2015 (8:15 PM CDT):
No AIRMET is currently available for this location.
SIGMET - Significant Meteorological Information
KPRG - Paris, Illinois
Updated at 1:15 AM GMT on September 03, 2015 (8:15 PM CDT):
No SIGMET is currently available for this location.
NOTAM - Notice to Airmen
KPRG - Paris, Illinois
Updated at 1:15 AM GMT on September 03, 2015 (8:15 PM CDT):
No NOTAM is currently available for this location.
Forecast Area
KPRG - Paris, Illinois
Updated at 1:15 AM GMT on September 03, 2015 (8:15 PM CDT):
No NOTAM is currently available for this location.
Aviation Weather Maps